Brixham, United Kingdom
Current Conditions -  °F | °C
As of 3:20 PM on Thursday 30 Oct 2014 (Local Time) from EGTE Reporting Station
Scattered Clouds Scattered Clouds  
Wind Chill: 61°   Ceiling: Unl
Heat Index: 61°   Visibility: 4mi
Dew Point: 57°   Wind: 12mph
Humidity: 88%   Direction: 160°SSE
Pressure: 30"   Gusts: NA
Location:  50.39°N, 3.52°W
Report Text: EGTE 301520Z 16010KT 7000 SCT007 16/14 Q1016
Loading
Personal Weather Stations






























Interactive Weather Map New forecast layout! Learn more

10-Day Weather Forecast

Advertisements
Track Severe Weather on mobile